Time;durP1;ratioP1;P1;durP2;ratioP2;P2;SDS_P1;SDS_P2;PMS_P1;PMS_P2;Temp;Humidity;BMP_temperature;BMP_pressure;BME280_temperature;BME280_humidity;BME280_pressure;Samples;Min_cycle;Max_cycle;Signal;HPM_P1;HPM_P2
2023/06/08 00:02:08;;;;;;;19.75;4.40;;;34.90;27.70;;;;;;4890389;29;20177;-72
2023/06/08 00:04:34;;;;;;;22.98;4.70;;;34.90;28.20;;;;;;4891209;29;20048;-66
2023/06/08 00:07:03;;;;;;;29.95;4.75;;;34.90;27.60;;;;;;4893073;29;20046;-72
2023/06/08 00:09:30;;;;;;;26.75;5.13;;;34.90;27.80;;;;;;4893828;29;20059;-69
2023/06/08 00:11:58;;;;;;;23.65;5.10;;;34.90;28.00;;;;;;4894026;29;20092;-72
2023/06/08 00:14:24;;;;;;;18.27;4.38;;;34.70;27.40;;;;;;4890867;29;20518;-71
2023/06/08 00:16:51;;;;;;;20.33;5.28;;;34.70;27.60;;;;;;4890358;29;20082;-71
2023/06/08 00:19:17;;;;;;;29.30;4.63;;;34.60;28.00;;;;;;4894580;29;20066;-71
2023/06/08 00:21:48;;;;;;;18.15;4.32;;;34.50;28.00;;;;;;4894809;29;20534;-66
2023/06/08 00:24:19;;;;;;;21.48;4.38;;;34.40;28.10;;;;;;4895054;29;20076;-71
2023/06/08 00:26:46;;;;;;;25.40;5.22;;;34.40;28.10;;;;;;4894546;29;20104;-69
2023/06/08 00:29:12;;;;;;;90.70;8.48;;;34.30;28.20;;;;;;4893596;29;20076;-70
2023/06/08 00:31:38;;;;;;;16.17;4.13;;;34.40;28.50;;;;;;4889605;29;20070;-71
2023/06/08 00:34:05;;;;;;;14.35;4.30;;;34.30;28.90;;;;;;4890471;29;20079;-67
2023/06/08 00:36:31;;;;;;;20.60;4.20;;;34.20;28.90;;;;;;4889896;29;20103;-71
2023/06/08 00:38:58;;;;;;;18.92;4.35;;;34.20;29.20;;;;;;4890009;29;20059;-69
2023/06/08 00:41:24;;;;;;;19.05;3.90;;;34.20;29.20;;;;;;4885509;29;20063;-69
2023/06/08 00:43:50;;;;;;;13.73;4.45;;;34.20;29.20;;;;;;4887522;29;20151;-69
2023/06/08 00:46:19;;;;;;;24.67;4.38;;;34.10;28.90;;;;;;4888110;29;20053;-66
2023/06/08 00:48:46;;;;;;;16.38;4.20;;;34.10;28.80;;;;;;4885439;29;20059;-67
2023/06/08 00:51:13;;;;;;;20.10;5.20;;;34.10;29.00;;;;;;4886174;29;20181;-74
2023/06/08 00:53:41;;;;;;;23.73;4.97;;;34.00;29.10;;;;;;4888698;29;20080;-65
2023/06/08 00:56:07;;;;;;;18.33;4.63;;;33.90;29.20;;;;;;4887273;29;20043;-67
2023/06/08 00:58:37;;;;;;;18.83;4.30;;;33.90;29.10;;;;;;4888537;29;20085;-71
2023/06/08 01:01:04;;;;;;;15.77;4.32;;;33.80;29.20;;;;;;4885702;29;20048;-68
2023/06/08 01:03:35;;;;;;;22.42;4.70;;;33.80;29.40;;;;;;4886784;29;20051;-69
2023/06/08 01:06:03;;;;;;;17.38;4.50;;;33.80;29.30;;;;;;4891018;29;20473;-68
2023/06/08 01:08:37;;;;;;;13.50;4.55;;;33.70;29.30;;;;;;4892167;29;20108;-69
2023/06/08 01:11:17;;;;;;;25.48;5.00;;;33.60;29.30;;;;;;4893236;29;20113;-69
2023/06/08 01:13:51;;;;;;;18.10;4.18;;;33.50;29.60;;;;;;4893392;29;20055;-69
2023/06/08 01:16:19;;;;;;;22.95;5.18;;;33.60;29.70;;;;;;4892543;29;20087;-68
2023/06/08 01:18:47;;;;;;;13.32;4.13;;;33.60;29.70;;;;;;4892890;29;20149;-69
2023/06/08 01:21:30;;;;;;;19.95;5.18;;;33.40;29.50;;;;;;4892971;29;20163;-71
2023/06/08 01:24:20;;;;;;;17.45;4.20;;;33.30;29.80;;;;;;4893771;29;20067;-67
2023/06/08 01:26:51;;;;;;;16.98;4.80;;;33.30;29.70;;;;;;4893118;29;20457;-72
2023/06/08 01:29:21;;;;;;;17.15;4.50;;;33.30;29.60;;;;;;4894719;29;20061;-68
2023/06/08 01:31:48;;;;;;;19.10;4.40;;;33.30;29.70;;;;;;4891694;29;20052;-68
2023/06/08 01:34:14;;;;;;;28.33;4.70;;;33.20;29.80;;;;;;4890777;29;20174;-69
2023/06/08 01:37:11;;;;;;;21.10;4.72;;;33.10;29.90;;;;;;4890625;29;20089;-68
2023/06/08 01:39:59;;;;;;;24.80;9.27;;;33.00;30.10;;;;;;4886685;29;20074;-67
2023/06/08 01:42:27;;;;;;;23.23;9.05;;;32.90;30.20;;;;;;4888354;29;20061;-69
2023/06/08 01:45:06;;;;;;;23.77;4.68;;;32.90;30.20;;;;;;4893362;29;20249;-67
2023/06/08 01:47:42;;;;;;;18.05;4.78;;;32.90;30.50;;;;;;4886000;29;20062;-66
2023/06/08 01:50:10;;;;;;;15.13;4.38;;;32.90;32.20;;;;;;4883977;29;20060;-67
2023/06/08 01:52:41;;;;;;;30.38;14.40;;;32.80;32.90;;;;;;4886897;29;20063;-68
2023/06/08 01:55:30;;;;;;;34.72;13.98;;;32.70;33.70;;;;;;4886544;29;20051;-67
2023/06/08 01:57:57;;;;;;;10.52;3.97;;;32.60;33.80;;;;;;4884603;29;20175;-70
2023/06/08 02:00:25;;;;;;;13.13;4.30;;;32.40;34.30;;;;;;4884604;29;20084;-68
2023/06/08 02:02:52;;;;;;;18.58;5.03;;;32.20;33.80;;;;;;4884062;29;20080;-69
2023/06/08 02:05:18;;;;;;;13.75;4.13;;;32.00;33.40;;;;;;4887847;29;20713;-69
2023/06/08 02:07:45;;;;;;;15.77;4.18;;;31.90;33.50;;;;;;4887280;29;20124;-70
2023/06/08 02:10:13;;;;;;;17.45;4.50;;;31.80;33.60;;;;;;4886959;29;20411;-68
2023/06/08 02:12:40;;;;;;;12.18;4.55;;;31.70;33.90;;;;;;4890276;29;20075;-68
2023/06/08 02:15:06;;;;;;;14.68;4.03;;;31.60;33.60;;;;;;4888119;29;20084;-72
2023/06/08 02:17:35;;;;;;;15.85;3.90;;;31.50;33.90;;;;;;4888348;29;20060;-72
2023/06/08 02:20:07;;;;;;;18.75;3.85;;;31.40;33.90;;;;;;4887785;29;20439;-67
2023/06/08 02:22:37;;;;;;;13.93;4.10;;;31.30;34.20;;;;;;4891085;29;20153;-72
2023/06/08 02:25:05;;;;;;;14.07;4.20;;;31.20;33.90;;;;;;4889754;29;20570;-68
2023/06/08 02:27:36;;;;;;;29.13;12.40;;;31.00;34.20;;;;;;4887707;29;20078;-66
2023/06/08 02:30:04;;;;;;;17.38;4.63;;;30.90;34.30;;;;;;4884990;29;20080;-68
2023/06/08 02:32:33;;;;;;;35.17;14.00;;;30.80;34.40;;;;;;4883541;29;20752;-68
2023/06/08 02:35:01;;;;;;;28.63;11.52;;;30.70;34.60;;;;;;4889851;29;20070;-66
2023/06/08 02:37:27;;;;;;;24.95;11.80;;;30.70;34.40;;;;;;4889227;29;20110;-67
2023/06/08 02:39:54;;;;;;;31.23;13.25;;;30.60;34.40;;;;;;4889357;29;20131;-67
2023/06/08 02:42:21;;;;;;;30.65;14.23;;;30.60;34.60;;;;;;4887454;29;20069;-67
2023/06/08 02:44:47;;;;;;;31.60;12.63;;;30.50;34.60;;;;;;4888050;29;20077;-67
2023/06/08 02:47:15;;;;;;;18.15;4.03;;;30.50;34.90;;;;;;4889005;29;20064;-68
2023/06/08 02:49:42;;;;;;;16.40;6.85;;;30.40;35.00;;;;;;4887485;29;20073;-63
2023/06/08 02:52:08;;;;;;;19.85;7.57;;;30.30;35.20;;;;;;4889087;29;20083;-60
2023/06/08 02:54:36;;;;;;;13.35;4.60;;;30.30;35.20;;;;;;4889371;29;20443;-62
2023/06/08 02:57:03;;;;;;;13.73;4.80;;;30.20;35.10;;;;;;4890492;29;20086;-61
2023/06/08 02:59:31;;;;;;;14.00;4.88;;;30.10;35.30;;;;;;4889648;29;20783;-64
2023/06/08 03:01:58;;;;;;;16.48;4.55;;;30.10;35.70;;;;;;4888752;29;20065;-67
2023/06/08 03:04:26;;;;;;;16.25;4.95;;;30.00;35.60;;;;;;4888993;29;20157;-66
2023/06/08 03:06:53;;;;;;;13.52;4.93;;;29.90;36.30;;;;;;4889133;29;20158;-69
2023/06/08 03:09:30;;;;;;;11.90;4.80;;;29.80;35.80;;;;;;4891383;29;20120;-66
2023/06/08 03:11:57;;;;;;;19.48;4.80;;;29.80;36.10;;;;;;4890192;29;20502;-67
2023/06/08 03:14:29;;;;;;;18.25;5.22;;;29.70;36.20;;;;;;4893060;29;20078;-69
2023/06/08 03:17:02;;;;;;;16.75;5.43;;;29.60;36.20;;;;;;4894561;29;20089;-65
2023/06/08 03:19:35;;;;;;;15.18;5.40;;;29.50;36.50;;;;;;4891440;29;20092;-70
2023/06/08 03:22:04;;;;;;;18.10;5.47;;;29.40;36.60;;;;;;4893746;29;20512;-69
2023/06/08 03:24:32;;;;;;;18.80;6.10;;;29.40;37.00;;;;;;4895493;29;20080;-69
2023/06/08 03:27:00;;;;;;;12.90;5.40;;;29.30;36.90;;;;;;4892497;29;20106;-69
2023/06/08 03:29:29;;;;;;;19.45;5.45;;;29.30;37.10;;;;;;4897455;29;20082;-71
2023/06/08 03:31:57;;;;;;;17.58;5.30;;;29.20;37.20;;;;;;4891507;29;20074;-68
2023/06/08 03:34:25;;;;;;;30.27;5.68;;;29.20;37.90;;;;;;4891678;29;20076;-70
2023/06/08 03:36:52;;;;;;;23.33;5.63;;;29.10;37.50;;;;;;4892260;29;20079;-69
2023/06/08 03:39:19;;;;;;;16.17;5.82;;;29.00;37.70;;;;;;4892196;29;20113;-70
2023/06/08 03:41:45;;;;;;;16.45;5.78;;;29.00;37.90;;;;;;4892228;29;20065;-69
2023/06/08 03:44:12;;;;;;;21.15;5.93;;;28.90;38.00;;;;;;4891974;29;20555;-66
2023/06/08 03:46:38;;;;;;;15.15;5.10;;;28.90;38.20;;;;;;4892816;29;20216;-68
2023/06/08 03:49:05;;;;;;;22.15;5.97;;;28.80;38.40;;;;;;4892891;29;20488;-68
2023/06/08 03:51:31;;;;;;;17.17;5.53;;;28.80;38.50;;;;;;4892110;29;20080;-68
2023/06/08 03:53:58;;;;;;;15.15;5.10;;;28.70;38.40;;;;;;4890688;29;20418;-69
2023/06/08 03:56:25;;;;;;;15.50;5.03;;;28.70;39.30;;;;;;4893678;29;20102;-68
2023/06/08 03:58:52;;;;;;;15.90;5.30;;;28.60;39.00;;;;;;4891790;29;20087;-70
2023/06/08 04:01:22;;;;;;;20.52;5.45;;;28.60;39.10;;;;;;4891598;29;20130;-68
2023/06/08 04:03:48;;;;;;;16.38;5.20;;;28.40;39.20;;;;;;4891031;29;20073;-69
2023/06/08 04:06:16;;;;;;;14.18;5.38;;;28.40;39.10;;;;;;4891055;29;20082;-66
2023/06/08 04:08:44;;;;;;;12.93;5.32;;;28.30;39.20;;;;;;4891698;29;20434;-71
2023/06/08 04:11:12;;;;;;;19.88;5.03;;;28.30;39.10;;;;;;4891247;29;20506;-69
2023/06/08 04:13:42;;;;;;;29.13;5.38;;;28.20;39.60;;;;;;4892008;29;20527;-67
2023/06/08 04:16:10;;;;;;;21.02;5.47;;;28.20;39.80;;;;;;4892108;29;20492;-70
2023/06/08 04:18:39;;;;;;;22.00;5.28;;;28.10;39.80;;;;;;4893276;29;20146;-68
2023/06/08 04:21:06;;;;;;;25.38;5.53;;;28.10;39.90;;;;;;4892599;29;20066;-70
2023/06/08 04:23:37;;;;;;;24.65;4.85;;;28.00;40.10;;;;;;4891540;29;20090;-70
2023/06/08 04:26:04;;;;;;;21.83;6.35;;;27.90;39.60;;;;;;4889132;29;20082;-67
2023/06/08 04:28:31;;;;;;;17.67;5.45;;;27.90;39.40;;;;;;4890634;29;20620;-68
2023/06/08 04:31:00;;;;;;;22.52;5.38;;;27.90;39.10;;;;;;4890005;29;20080;-69
2023/06/08 04:33:30;;;;;;;19.58;5.45;;;27.80;39.30;;;;;;4888714;29;20116;-66
2023/06/08 04:35:57;;;;;;;19.20;4.85;;;27.80;38.60;;;;;;4889531;29;20127;-68
2023/06/08 04:38:25;;;;;;;12.70;4.93;;;27.80;38.60;;;;;;4885727;29;20095;-64
2023/06/08 04:40:53;;;;;;;14.02;4.88;;;27.80;38.10;;;;;;4890366;29;20084;-67
2023/06/08 04:43:25;;;;;;;16.52;4.97;;;27.70;38.10;;;;;;4890192;29;20132;-67
2023/06/08 04:45:57;;;;;;;14.70;4.47;;;27.80;38.10;;;;;;4891248;29;20525;-68
2023/06/08 04:48:27;;;;;;;15.35;4.68;;;27.80;38.10;;;;;;4888896;29;20122;-67
2023/06/08 04:51:09;;;;;;;14.15;4.30;;;27.70;37.60;;;;;;4891998;29;20552;-67
2023/06/08 04:53:37;;;;;;;18.88;4.80;;;27.70;37.80;;;;;;4891626;29;20551;-67
2023/06/08 04:56:04;;;;;;;15.55;4.43;;;27.70;38.10;;;;;;4889273;29;20096;-70
2023/06/08 04:58:32;;;;;;;17.92;4.75;;;27.70;37.80;;;;;;4890116;29;20555;-69
2023/06/08 05:00:59;;;;;;;12.05;4.25;;;27.70;38.20;;;;;;4890699;29;20091;-67
2023/06/08 05:03:26;;;;;;;13.43;4.50;;;27.60;38.10;;;;;;4889648;29;20170;-69
2023/06/08 05:05:54;;;;;;;16.90;4.88;;;27.60;38.00;;;;;;4889729;29;20161;-68
2023/06/08 05:08:20;;;;;;;12.63;4.25;;;27.60;38.00;;;;;;4890639;29;20071;-67
2023/06/08 05:10:46;;;;;;;15.43;4.78;;;27.60;38.00;;;;;;4892261;29;20622;-67
2023/06/08 05:13:13;;;;;;;9.50;4.57;;;27.50;38.00;;;;;;4890360;29;20076;-69
2023/06/08 05:15:39;;;;;;;17.73;5.13;;;27.50;38.10;;;;;;4888871;29;20581;-66
2023/06/08 05:18:06;;;;;;;10.48;4.32;;;27.50;38.20;;;;;;4892992;29;20174;-69
2023/06/08 05:20:32;;;;;;;11.80;4.55;;;27.50;38.40;;;;;;4892283;29;20076;-68
2023/06/08 05:22:59;;;;;;;12.02;4.45;;;27.40;38.40;;;;;;4889950;29;21401;-68
2023/06/08 05:25:26;;;;;;;9.40;4.13;;;27.40;38.40;;;;;;4889777;29;20086;-69
2023/06/08 05:27:52;;;;;;;20.88;6.18;;;27.40;38.50;;;;;;4889543;29;20067;-68
2023/06/08 05:30:19;;;;;;;16.92;4.63;;;27.40;38.50;;;;;;4888882;29;20148;-70
2023/06/08 05:32:45;;;;;;;15.68;4.40;;;27.40;38.40;;;;;;4889486;29;20116;-65
2023/06/08 05:35:12;;;;;;;32.60;5.20;;;27.40;38.40;;;;;;4888855;29;20082;-65
2023/06/08 05:37:38;;;;;;;40.97;6.32;;;27.30;38.40;;;;;;4889334;29;20078;-66
2023/06/08 05:40:05;;;;;;;43.83;6.70;;;27.30;39.10;;;;;;4888440;29;20527;-70
2023/06/08 05:42:32;;;;;;;60.90;8.50;;;27.30;39.10;;;;;;4891196;29;20075;-71
2023/06/08 05:44:58;;;;;;;34.97;9.75;;;27.20;39.30;;;;;;4891790;29;20071;-69
2023/06/08 05:47:24;;;;;;;16.55;4.82;;;27.10;39.30;;;;;;4888967;29;20079;-68
2023/06/08 05:49:51;;;;;;;14.85;4.40;;;27.10;39.00;;;;;;4888256;29;20089;-74
2023/06/08 05:52:17;;;;;;;10.38;4.00;;;27.10;39.10;;;;;;4889479;29;20432;-67
2023/06/08 05:54:44;;;;;;;9.35;4.22;;;27.00;39.00;;;;;;4889943;29;20083;-71
2023/06/08 05:57:10;;;;;;;8.57;4.18;;;27.00;39.20;;;;;;4886623;29;20096;-67
2023/06/08 05:59:37;;;;;;;10.23;3.92;;;27.00;39.50;;;;;;4888981;29;20119;-72
2023/06/08 06:02:03;;;;;;;14.18;4.43;;;27.00;39.70;;;;;;4885297;29;20068;-69
2023/06/08 06:04:30;;;;;;;8.35;4.38;;;27.00;39.80;;;;;;4887935;29;20071;-71
2023/06/08 06:06:56;;;;;;;18.10;4.50;;;26.90;39.80;;;;;;4886759;29;20148;-71
2023/06/08 06:09:22;;;;;;;15.50;4.18;;;26.80;40.00;;;;;;4887526;29;20107;-70
2023/06/08 06:11:49;;;;;;;16.73;4.80;;;26.70;40.60;;;;;;4888746;29;20076;-70
2023/06/08 06:14:16;;;;;;;17.98;4.30;;;26.60;41.90;;;;;;4890527;29;20099;-69
2023/06/08 06:16:43;;;;;;;15.68;4.68;;;26.50;42.00;;;;;;4890882;29;20072;-70
2023/06/08 06:19:10;;;;;;;21.92;7.35;;;26.50;42.50;;;;;;4889882;29;20097;-69
2023/06/08 06:21:36;;;;;;;10.32;5.03;;;26.50;43.30;;;;;;4890421;29;20075;-69
2023/06/08 06:24:03;;;;;;;27.55;5.70;;;26.40;43.40;;;;;;4891361;29;20132;-69
2023/06/08 06:26:29;;;;;;;12.90;4.55;;;26.30;43.10;;;;;;4889901;29;20072;-67
2023/06/08 06:28:55;;;;;;;13.57;4.10;;;26.10;42.70;;;;;;4888831;29;20079;-67
2023/06/08 06:31:22;;;;;;;9.40;4.03;;;26.10;43.00;;;;;;4887077;29;20084;-69
2023/06/08 06:33:48;;;;;;;16.83;5.22;;;26.00;42.90;;;;;;4888759;29;20426;-71
2023/06/08 06:36:15;;;;;;;17.23;5.60;;;26.00;43.10;;;;;;4892153;29;20094;-70
2023/06/08 06:38:41;;;;;;;16.92;4.47;;;26.00;43.00;;;;;;4886897;29;20546;-70
2023/06/08 06:41:07;;;;;;;17.75;4.00;;;26.00;43.40;;;;;;4888140;29;20132;-71
2023/06/08 06:43:34;;;;;;;13.43;4.53;;;26.00;43.00;;;;;;4889624;29;20075;-68
2023/06/08 06:46:03;;;;;;;15.55;4.20;;;26.00;43.50;;;;;;4886611;29;20550;-71
2023/06/08 06:48:30;;;;;;;14.65;4.50;;;25.90;43.10;;;;;;4885303;29;20084;-69
2023/06/08 06:50:56;;;;;;;15.57;4.75;;;25.80;43.00;;;;;;4887662;29;20095;-70
2023/06/08 06:53:23;;;;;;;21.20;5.00;;;25.70;43.20;;;;;;4886847;29;20081;-70
2023/06/08 06:55:49;;;;;;;10.60;4.20;;;25.70;43.30;;;;;;4889028;29;20170;-71
2023/06/08 06:58:16;;;;;;;14.95;4.07;;;25.70;43.40;;;;;;4889120;29;20226;-69
2023/06/08 07:00:43;;;;;;;12.35;4.68;;;25.60;43.40;;;;;;4886328;29;20076;-68
2023/06/08 07:03:11;;;;;;;15.38;4.53;;;25.60;43.70;;;;;;4887298;29;20448;-67
2023/06/08 07:05:38;;;;;;;14.45;4.15;;;25.70;43.50;;;;;;4885862;29;20069;-67
2023/06/08 07:08:04;;;;;;;17.48;4.38;;;25.60;43.40;;;;;;4885978;29;20071;-70
2023/06/08 07:10:31;;;;;;;13.57;3.97;;;25.60;43.10;;;;;;4891235;29;20088;-70
2023/06/08 07:12:58;;;;;;;16.10;4.65;;;25.50;43.80;;;;;;4886160;29;20072;-69
2023/06/08 07:15:25;;;;;;;10.73;4.38;;;25.50;44.10;;;;;;4886757;29;20436;-67
2023/06/08 07:17:52;;;;;;;26.80;5.25;;;25.40;43.80;;;;;;4886529;29;20153;-69
2023/06/08 07:20:18;;;;;;;18.27;4.18;;;25.20;44.00;;;;;;4887664;29;20087;-69
2023/06/08 07:22:44;;;;;;;17.55;4.07;;;25.20;44.10;;;;;;4885159;29;20080;-68
2023/06/08 07:25:11;;;;;;;15.20;4.40;;;25.20;43.80;;;;;;4886850;29;20084;-62
2023/06/08 07:27:37;;;;;;;12.70;4.10;;;25.20;43.70;;;;;;4889334;29;20065;-61
2023/06/08 07:30:04;;;;;;;17.17;4.30;;;25.20;43.70;;;;;;4890145;29;20076;-64
2023/06/08 07:32:32;;;;;;;15.60;4.43;;;25.10;43.90;;;;;;4885899;29;20107;-63
2023/06/08 07:34:59;;;;;;;11.65;4.10;;;25.10;43.60;;;;;;4887709;29;20168;-63
2023/06/08 07:37:26;;;;;;;30.75;4.55;;;25.00;44.10;;;;;;4889460;29;20102;-62
2023/06/08 07:39:52;;;;;;;16.20;4.20;;;24.90;44.20;;;;;;4887193;29;20140;-62
2023/06/08 07:42:18;;;;;;;16.63;4.45;;;24.90;44.30;;;;;;4891310;29;20080;-64
2023/06/08 07:44:45;;;;;;;11.30;3.90;;;25.00;44.10;;;;;;4889692;29;20110;-65
2023/06/08 07:47:11;;;;;;;14.07;3.88;;;25.10;43.70;;;;;;4888954;29;20072;-66
2023/06/08 07:49:38;;;;;;;11.60;4.43;;;25.10;43.50;;;;;;4885615;29;20480;-64
2023/06/08 07:52:05;;;;;;;13.93;3.92;;;25.10;43.60;;;;;;4888178;29;20076;-65
2023/06/08 07:54:32;;;;;;;15.13;4.10;;;25.10;43.60;;;;;;4890187;29;20072;-65
2023/06/08 07:56:58;;;;;;;14.98;4.35;;;25.20;43.50;;;;;;4887701;29;20100;-66
2023/06/08 07:59:25;;;;;;;19.20;4.40;;;25.10;43.20;;;;;;4895295;29;20174;-67
2023/06/08 08:01:51;;;;;;;17.85;4.47;;;25.20;43.10;;;;;;4892636;29;20150;-67
2023/06/08 08:04:18;;;;;;;14.38;4.40;;;25.20;43.00;;;;;;4892264;29;20127;-64
2023/06/08 08:06:44;;;;;;;15.30;4.45;;;25.10;42.90;;;;;;4891820;29;20469;-65
2023/06/08 08:09:11;;;;;;;17.05;4.35;;;25.10;44.10;;;;;;4890121;29;20096;-66
2023/06/08 08:11:37;;;;;;;12.35;4.47;;;25.10;44.10;;;;;;4891043;29;20084;-65
2023/06/08 08:14:09;;;;;;;16.48;4.72;;;25.00;44.30;;;;;;4891111;29;20072;-65
2023/06/08 08:16:38;;;;;;;16.55;4.95;;;25.00;43.50;;;;;;4891760;29;20084;-67
2023/06/08 08:19:05;;;;;;;19.25;5.00;;;25.00;43.50;;;;;;4889664;29;20131;-63
2023/06/08 08:21:32;;;;;;;15.10;4.40;;;25.00;43.70;;;;;;4891315;29;20092;-67
2023/06/08 08:24:00;;;;;;;14.00;4.03;;;25.00;43.00;;;;;;4891616;29;20170;-64
2023/06/08 08:26:28;;;;;;;9.95;3.97;;;24.90;42.90;;;;;;4887790;29;20179;-67
2023/06/08 08:28:57;;;;;;;12.13;3.72;;;24.90;42.20;;;;;;4886898;29;20550;-66
2023/06/08 08:31:25;;;;;;;12.57;3.92;;;24.90;42.60;;;;;;4884940;29;20116;-66
2023/06/08 08:33:51;;;;;;;12.20;4.13;;;24.90;42.70;;;;;;4885709;29;20444;-65
2023/06/08 08:36:18;;;;;;;17.48;5.10;;;24.90;42.20;;;;;;4888257;29;20135;-66
2023/06/08 08:38:45;;;;;;;15.35;4.10;;;24.90;42.80;;;;;;4888009;29;20085;-65
2023/06/08 08:41:15;;;;;;;10.68;3.70;;;24.90;43.00;;;;;;4887866;29;20076;-65
2023/06/08 08:43:57;;;;;;;17.35;4.97;;;24.90;43.00;;;;;;4891516;29;20104;-66
2023/06/08 08:46:25;;;;;;;13.32;5.20;;;24.90;43.30;;;;;;4894661;29;20076;-67
2023/06/08 08:48:53;;;;;;;13.68;4.60;;;24.90;43.50;;;;;;4890317;29;20089;-65
2023/06/08 08:51:20;;;;;;;16.75;4.38;;;24.90;43.20;;;;;;4889606;29;20621;-62
2023/06/08 08:53:51;;;;;;;15.52;4.90;;;24.90;43.40;;;;;;4893650;29;20433;-66
2023/06/08 08:56:30;;;;;;;15.80;4.80;;;24.80;43.50;;;;;;4892058;29;20445;-66
2023/06/08 08:58:57;;;;;;;16.40;4.78;;;24.80;43.40;;;;;;4896135;29;20600;-66
2023/06/08 09:01:25;;;;;;;16.13;4.57;;;24.70;43.50;;;;;;4892260;29;20110;-65
2023/06/08 09:03:52;;;;;;;11.90;4.30;;;24.70;43.50;;;;;;4890642;29;20068;-65
2023/06/08 09:06:18;;;;;;;11.93;4.10;;;24.70;43.50;;;;;;4890196;29;20444;-65
2023/06/08 09:08:45;;;;;;;13.30;4.10;;;24.70;43.30;;;;;;4890818;29;20087;-67
2023/06/08 09:11:12;;;;;;;13.75;4.00;;;24.60;43.30;;;;;;4891709;29;20135;-63
2023/06/08 09:13:38;;;;;;;15.80;4.18;;;24.50;43.60;;;;;;4890643;29;20099;-64
2023/06/08 09:16:15;;;;;;;17.35;3.80;;;24.60;43.50;;;;;;4890475;29;20083;-63
2023/06/08 09:18:46;;;;;;;12.10;4.78;;;24.50;43.10;;;;;;4891319;29;20098;-65
2023/06/08 09:21:28;;;;;;;13.82;3.90;;;24.50;43.20;;;;;;4891039;29;20076;-65
2023/06/08 09:24:17;;;;;;;9.27;3.85;;;24.40;43.90;;;;;;4891498;29;20470;-66
2023/06/08 09:26:53;;;;;;;17.85;4.10;;;24.40;43.90;;;;;;4891031;29;20571;-63
2023/06/08 09:29:40;;;;;;;11.87;4.37;;;24.30;43.80;;;;;;4894423;29;20091;-65
2023/06/08 09:32:16;;;;;;;12.57;6.10;;;24.30;44.10;;;;;;4890185;29;20446;-64
2023/06/08 09:34:54;;;;;;;18.33;5.00;;;24.30;44.10;;;;;;4891770;29;20683;-65
2023/06/08 09:37:26;;;;;;;15.75;4.78;;;24.30;43.90;;;;;;4893150;29;20095;-65
2023/06/08 09:39:53;;;;;;;13.02;4.70;;;24.30;44.40;;;;;;4890308;29;20088;-64
2023/06/08 09:42:20;;;;;;;11.65;4.65;;;24.10;44.20;;;;;;4887180;29;20107;-65
2023/06/08 09:44:46;;;;;;;13.85;4.72;;;24.10;44.30;;;;;;4890401;29;20441;-65
2023/06/08 09:47:26;;;;;;;12.45;4.38;;;24.10;44.30;;;;;;4892990;29;20125;-65
2023/06/08 09:49:54;;;;;;;13.27;4.40;;;24.10;44.80;;;;;;4890934;29;20082;-65
2023/06/08 09:52:24;;;;;;;17.65;4.32;;;24.00;44.40;;;;;;4890380;29;20080;-66
2023/06/08 09:54:52;;;;;;;9.48;3.80;;;24.00;44.50;;;;;;4889012;29;20092;-65
2023/06/08 09:57:22;;;;;;;13.60;4.22;;;23.90;45.00;;;;;;4890011;29;20099;-66
2023/06/08 10:00:17;;;;;;;15.10;4.35;;;23.90;45.30;;;;;;4891065;29;20114;-66
2023/06/08 10:03:28;;;;;;;15.80;4.60;;;23.80;45.60;;;;;;4883915;29;20088;-66
2023/06/08 10:05:57;;;;;;;11.13;4.03;;;23.80;45.30;;;;;;4818286;29;20112;-65
2023/06/08 10:08:27;;;;;;;10.57;3.92;;;23.80;45.80;;;;;;4819008;29;20090;-60
2023/06/08 10:10:55;;;;;;;21.98;9.18;;;23.70;46.40;;;;;;4818015;29;20089;-62
2023/06/08 10:13:23;;;;;;;19.92;4.93;;;23.60;46.20;;;;;;4818838;29;20089;-65
2023/06/08 10:15:51;;;;;;;15.85;4.40;;;23.60;46.30;;;;;;4818587;29;20085;-67
2023/06/08 10:18:18;;;;;;;14.15;4.38;;;23.50;46.60;;;;;;4818150;29;20192;-68
2023/06/08 10:20:44;;;;;;;12.15;3.78;;;23.50;46.60;;;;;;4818022;29;20085;-66
2023/06/08 10:23:12;;;;;;;14.20;4.38;;;23.50;46.40;;;;;;4818418;29;20146;-66
2023/06/08 10:25:40;;;;;;;17.52;4.50;;;23.60;46.50;;;;;;4818482;29;20146;-65
2023/06/08 10:28:09;;;;;;;12.75;4.20;;;23.60;46.50;;;;;;4818329;29;20122;-66
2023/06/08 10:30:41;;;;;;;14.70;4.57;;;23.60;46.30;;;;;;4818451;29;20097;-66
2023/06/08 10:33:08;;;;;;;13.48;4.63;;;23.60;46.60;;;;;;4815667;29;20141;-66
2023/06/08 10:35:36;;;;;;;15.63;4.57;;;23.50;46.70;;;;;;4817179;29;20094;-65
2023/06/08 10:38:29;;;;;;;18.00;4.85;;;23.50;46.90;;;;;;4817414;29;20510;-66
2023/06/08 10:40:56;;;;;;;20.13;5.45;;;23.50;46.60;;;;;;4815561;29;20448;-66
2023/06/08 10:43:28;;;;;;;14.15;5.07;;;23.50;46.40;;;;;;4884431;29;20160;-67
2023/06/08 10:45:55;;;;;;;18.73;5.38;;;23.50;46.50;;;;;;4889638;29;20098;-66
2023/06/08 10:48:22;;;;;;;14.80;5.35;;;23.40;46.80;;;;;;4889841;29;20076;-67
2023/06/08 10:50:51;;;;;;;18.15;5.47;;;23.30;47.20;;;;;;4887624;29;20092;-66
2023/06/08 10:53:55;;;;;;;13.32;4.70;;;23.40;46.80;;;;;;4887978;29;20076;-67
2023/06/08 10:56:28;;;;;;;20.17;4.55;;;23.30;47.50;;;;;;4891312;29;20151;-68
2023/06/08 10:58:55;;;;;;;12.18;5.38;;;23.20;47.90;;;;;;4888981;29;20593;-68
2023/06/08 11:01:24;;;;;;;14.98;5.43;;;23.20;47.60;;;;;;4887982;29;20109;-65
2023/06/08 11:03:51;;;;;;;18.30;6.07;;;23.10;48.00;;;;;;4890065;29;20072;-67
2023/06/08 11:06:18;;;;;;;18.42;5.60;;;23.10;47.90;;;;;;4888638;29;20128;-65
2023/06/08 11:08:46;;;;;;;17.90;5.18;;;23.20;48.20;;;;;;4886140;29;20553;-67
2023/06/08 11:11:13;;;;;;;14.75;4.72;;;23.20;47.80;;;;;;4890703;29;20444;-66
2023/06/08 11:13:39;;;;;;;14.02;3.95;;;23.20;47.70;;;;;;4889879;29;20091;-67
2023/06/08 11:16:06;;;;;;;15.63;4.78;;;23.10;48.10;;;;;;4889281;29;20099;-68
2023/06/08 11:18:34;;;;;;;19.27;4.93;;;23.10;48.50;;;;;;4889118;29;20089;-67
2023/06/08 11:21:00;;;;;;;15.48;4.47;;;23.00;48.70;;;;;;4887081;29;20095;-67
2023/06/08 11:23:31;;;;;;;15.93;4.80;;;23.00;49.30;;;;;;4887379;29;20556;-67
2023/06/08 11:25:57;;;;;;;16.23;4.40;;;23.00;49.20;;;;;;4888332;29;20521;-66
2023/06/08 11:28:24;;;;;;;14.73;4.25;;;23.00;48.80;;;;;;4889180;29;20100;-67
2023/06/08 11:30:50;;;;;;;16.02;5.47;;;23.00;48.70;;;;;;4888093;29;20163;-67
2023/06/08 11:33:19;;;;;;;16.27;4.95;;;22.90;50.20;;;;;;4826211;29;1942465;-68
2023/06/08 11:35:50;;;;;;;14.20;4.40;;;22.90;50.20;;;;;;4893369;29;20108;-67
2023/06/08 11:38:16;;;;;;;11.90;3.95;;;22.80;50.20;;;;;;4891938;29;20081;-66
2023/06/08 11:40:43;;;;;;;13.65;3.78;;;22.80;49.40;;;;;;4893797;29;20085;-66
2023/06/08 11:43:11;;;;;;;14.30;3.92;;;22.70;50.70;;;;;;4893255;29;20079;-67
2023/06/08 11:45:39;;;;;;;13.48;3.95;;;22.70;50.50;;;;;;4892165;29;20075;-66
2023/06/08 11:48:06;;;;;;;12.57;3.85;;;22.60;49.80;;;;;;4893999;29;20088;-68
2023/06/08 11:50:32;;;;;;;12.40;3.67;;;22.60;50.30;;;;;;4894218;29;20183;-67
2023/06/08 11:53:02;;;;;;;13.95;4.47;;;22.60;50.80;;;;;;4893345;29;20123;-68
2023/06/08 11:55:30;;;;;;;21.35;4.97;;;22.60;51.40;;;;;;4894034;29;20072;-66
2023/06/08 11:58:02;;;;;;;16.92;4.10;;;22.50;51.30;;;;;;4892524;29;20092;-66
2023/06/08 12:00:33;;;;;;;11.02;4.05;;;22.50;51.00;;;;;;4893593;29;20088;-67
2023/06/08 12:03:01;;;;;;;10.95;4.00;;;22.50;51.10;;;;;;4892915;29;20072;-68
2023/06/08 12:05:35;;;;;;;11.95;3.70;;;22.50;51.80;;;;;;4892867;29;20080;-69
2023/06/08 12:08:11;;;;;;;12.80;4.03;;;22.40;52.80;;;;;;4891346;29;20457;-67
2023/06/08 12:10:42;;;;;;;12.05;4.30;;;22.40;51.70;;;;;;4894519;29;20075;-67
2023/06/08 12:13:11;;;;;;;16.17;4.55;;;22.40;51.40;;;;;;4893823;29;20453;-68
2023/06/08 12:15:46;;;;;;;12.52;3.85;;;22.30;51.80;;;;;;4892489;29;20069;-66
2023/06/08 12:18:17;;;;;;;10.60;4.05;;;22.30;52.30;;;;;;4890084;29;20429;-66
2023/06/08 12:20:45;;;;;;;16.98;3.70;;;22.30;52.00;;;;;;4892044;29;20123;-66
2023/06/08 12:23:12;;;;;;;20.65;4.60;;;22.30;52.10;;;;;;4892480;29;20445;-67
2023/06/08 12:25:42;;;;;;;16.48;3.70;;;22.20;52.10;;;;;;4891802;29;20481;-67
2023/06/08 12:28:24;;;;;;;8.18;3.30;;;22.20;51.80;;;;;;4896383;29;20072;-68
2023/06/08 12:30:52;;;;;;;16.05;4.03;;;22.20;52.10;;;;;;4893712;29;20076;-67
2023/06/08 12:33:19;;;;;;;14.80;3.65;;;22.20;51.80;;;;;;4892820;29;20203;-66
2023/06/08 12:35:49;;;;;;;16.00;3.95;;;22.20;52.20;;;;;;4892532;29;20072;-68
2023/06/08 12:38:16;;;;;;;16.48;3.85;;;22.20;51.90;;;;;;4891914;29;20120;-68
2023/06/08 12:40:47;;;;;;;11.38;3.30;;;22.20;52.00;;;;;;4891894;29;20091;-68
2023/06/08 12:43:15;;;;;;;13.77;3.22;;;22.20;51.90;;;;;;4891866;29;20072;-69
2023/06/08 12:45:42;;;;;;;8.88;3.22;;;22.20;52.60;;;;;;4891079;29;20131;-68